sensor_id;sensor_type;location;lat;lon;timestamp;P1;durP1;ratioP1;P2;durP2;ratioP2
53801;SDS011;39709;53.334;6.534;2023-04-24T00:00:08;2.17;;;0.60;;
53801;SDS011;39709;53.334;6.534;2023-04-24T00:02:34;1.48;;;0.40;;
53801;SDS011;39709;53.334;6.534;2023-04-24T00:05:03;1.38;;;0.40;;
53801;SDS011;39709;53.334;6.534;2023-04-24T00:07:29;4.72;;;1.73;;
53801;SDS011;39709;53.334;6.534;2023-04-24T00:09:55;9.27;;;2.60;;
53801;SDS011;39709;53.334;6.534;2023-04-24T00:12:21;5.60;;;2.30;;
53801;SDS011;39709;53.334;6.534;2023-04-24T00:14:46;9.20;;;2.60;;
53801;SDS011;39709;53.334;6.534;2023-04-24T00:17:12;8.50;;;3.50;;
53801;SDS011;39709;53.334;6.534;2023-04-24T00:19:38;7.83;;;3.17;;
53801;SDS011;39709;53.334;6.534;2023-04-24T00:22:04;8.07;;;3.92;;
53801;SDS011;39709;53.334;6.534;2023-04-24T00:24:30;7.10;;;3.75;;
53801;SDS011;39709;53.334;6.534;2023-04-24T00:26:56;8.25;;;3.90;;
53801;SDS011;39709;53.334;6.534;2023-04-24T00:29:22;9.33;;;4.73;;
53801;SDS011;39709;53.334;6.534;2023-04-24T00:31:47;10.52;;;4.88;;
53801;SDS011;39709;53.334;6.534;2023-04-24T00:34:13;12.30;;;5.67;;
53801;SDS011;39709;53.334;6.534;2023-04-24T00:36:39;10.85;;;5.38;;
53801;SDS011;39709;53.334;6.534;2023-04-24T00:39:05;10.23;;;5.90;;
53801;SDS011;39709;53.334;6.534;2023-04-24T00:41:33;11.07;;;5.87;;
53801;SDS011;39709;53.334;6.534;2023-04-24T00:43:59;11.55;;;6.03;;
53801;SDS011;39709;53.334;6.534;2023-04-24T00:46:25;11.15;;;5.90;;
53801;SDS011;39709;53.334;6.534;2023-04-24T00:48:51;11.70;;;6.30;;
53801;SDS011;39709;53.334;6.534;2023-04-24T00:51:17;12.40;;;6.63;;
53801;SDS011;39709;53.334;6.534;2023-04-24T00:53:43;12.27;;;6.43;;
53801;SDS011;39709;53.334;6.534;2023-04-24T00:56:09;10.75;;;6.00;;
53801;SDS011;39709;53.334;6.534;2023-04-24T00:58:35;11.63;;;6.53;;
53801;SDS011;39709;53.334;6.534;2023-04-24T01:01:01;12.63;;;5.78;;
53801;SDS011;39709;53.334;6.534;2023-04-24T01:03:29;12.90;;;6.13;;
53801;SDS011;39709;53.334;6.534;2023-04-24T01:05:56;11.80;;;5.85;;
53801;SDS011;39709;53.334;6.534;2023-04-24T01:08:23;9.83;;;5.20;;
53801;SDS011;39709;53.334;6.534;2023-04-24T01:10:50;10.98;;;5.45;;
53801;SDS011;39709;53.334;6.534;2023-04-24T01:13:17;11.70;;;5.30;;
53801;SDS011;39709;53.334;6.534;2023-04-24T01:15:44;9.02;;;4.35;;
53801;SDS011;39709;53.334;6.534;2023-04-24T01:18:10;8.82;;;4.72;;
53801;SDS011;39709;53.334;6.534;2023-04-24T01:20:37;13.40;;;4.80;;
53801;SDS011;39709;53.334;6.534;2023-04-24T01:23:05;8.90;;;5.07;;
53801;SDS011;39709;53.334;6.534;2023-04-24T01:25:31;11.55;;;4.60;;
53801;SDS011;39709;53.334;6.534;2023-04-24T01:27:58;9.30;;;4.45;;
53801;SDS011;39709;53.334;6.534;2023-04-24T01:30:24;11.57;;;3.88;;
53801;SDS011;39709;53.334;6.534;2023-04-24T01:32:51;2.80;;;0.87;;
53801;SDS011;39709;53.334;6.534;2023-04-24T01:35:17;2.00;;;0.45;;
53801;SDS011;39709;53.334;6.534;2023-04-24T01:37:43;3.42;;;1.10;;
53801;SDS011;39709;53.334;6.534;2023-04-24T01:40:09;3.90;;;0.90;;
53801;SDS011;39709;53.334;6.534;2023-04-24T01:42:35;4.18;;;0.90;;
53801;SDS011;39709;53.334;6.534;2023-04-24T01:45:01;2.87;;;0.80;;
53801;SDS011;39709;53.334;6.534;2023-04-24T01:47:29;2.85;;;0.80;;
53801;SDS011;39709;53.334;6.534;2023-04-24T01:49:55;3.75;;;1.10;;
53801;SDS011;39709;53.334;6.534;2023-04-24T01:52:21;2.40;;;0.70;;
53801;SDS011;39709;53.334;6.534;2023-04-24T01:54:47;3.83;;;0.80;;
53801;SDS011;39709;53.334;6.534;2023-04-24T01:57:13;1.33;;;0.40;;
53801;SDS011;39709;53.334;6.534;2023-04-24T01:59:41;2.58;;;0.60;;
53801;SDS011;39709;53.334;6.534;2023-04-24T02:02:07;1.30;;;0.30;;
53801;SDS011;39709;53.334;6.534;2023-04-24T02:04:32;3.25;;;1.05;;
53801;SDS011;39709;53.334;6.534;2023-04-24T02:06:58;3.87;;;1.30;;
53801;SDS011;39709;53.334;6.534;2023-04-24T02:09:24;3.38;;;0.98;;
53801;SDS011;39709;53.334;6.534;2023-04-24T02:11:50;3.67;;;1.13;;
53801;SDS011;39709;53.334;6.534;2023-04-24T02:14:15;2.43;;;0.50;;
53801;SDS011;39709;53.334;6.534;2023-04-24T02:16:41;3.50;;;0.95;;
53801;SDS011;39709;53.334;6.534;2023-04-24T02:19:07;3.27;;;0.87;;
53801;SDS011;39709;53.334;6.534;2023-04-24T02:21:33;4.28;;;1.25;;
53801;SDS011;39709;53.334;6.534;2023-04-24T02:23:59;4.05;;;1.27;;
53801;SDS011;39709;53.334;6.534;2023-04-24T02:26:25;5.37;;;1.30;;
53801;SDS011;39709;53.334;6.534;2023-04-24T02:28:51;4.90;;;1.42;;
53801;SDS011;39709;53.334;6.534;2023-04-24T02:31:16;4.50;;;1.25;;
53801;SDS011;39709;53.334;6.534;2023-04-24T02:33:42;3.87;;;1.30;;
53801;SDS011;39709;53.334;6.534;2023-04-24T02:36:08;4.40;;;1.60;;
53801;SDS011;39709;53.334;6.534;2023-04-24T02:38:33;4.45;;;1.50;;
53801;SDS011;39709;53.334;6.534;2023-04-24T02:40:59;3.97;;;1.20;;
53801;SDS011;39709;53.334;6.534;2023-04-24T02:43:27;5.50;;;1.50;;
53801;SDS011;39709;53.334;6.534;2023-04-24T02:45:53;3.07;;;1.20;;
53801;SDS011;39709;53.334;6.534;2023-04-24T02:48:18;3.72;;;1.20;;
53801;SDS011;39709;53.334;6.534;2023-04-24T02:50:46;3.45;;;1.00;;
53801;SDS011;39709;53.334;6.534;2023-04-24T02:53:11;3.67;;;1.03;;
53801;SDS011;39709;53.334;6.534;2023-04-24T02:55:37;3.47;;;1.20;;
53801;SDS011;39709;53.334;6.534;2023-04-24T02:58:03;4.97;;;1.93;;
53801;SDS011;39709;53.334;6.534;2023-04-24T03:00:29;6.18;;;2.13;;
53801;SDS011;39709;53.334;6.534;2023-04-24T03:02:54;4.22;;;1.60;;
53801;SDS011;39709;53.334;6.534;2023-04-24T03:05:20;5.53;;;2.53;;
53801;SDS011;39709;53.334;6.534;2023-04-24T03:07:47;5.68;;;2.20;;
53801;SDS011;39709;53.334;6.534;2023-04-24T03:10:13;4.45;;;1.83;;
53801;SDS011;39709;53.334;6.534;2023-04-24T03:12:38;7.53;;;2.27;;
53801;SDS011;39709;53.334;6.534;2023-04-24T03:15:04;6.43;;;2.55;;
53801;SDS011;39709;53.334;6.534;2023-04-24T03:17:30;5.83;;;2.17;;
53801;SDS011;39709;53.334;6.534;2023-04-24T03:19:56;6.70;;;3.38;;
53801;SDS011;39709;53.334;6.534;2023-04-24T03:22:21;7.33;;;3.60;;
53801;SDS011;39709;53.334;6.534;2023-04-24T03:24:47;6.57;;;3.15;;
53801;SDS011;39709;53.334;6.534;2023-04-24T03:27:13;7.87;;;3.47;;
53801;SDS011;39709;53.334;6.534;2023-04-24T03:29:38;6.47;;;2.90;;
53801;SDS011;39709;53.334;6.534;2023-04-24T03:32:04;6.37;;;3.00;;
53801;SDS011;39709;53.334;6.534;2023-04-24T03:34:30;7.32;;;3.55;;
53801;SDS011;39709;53.334;6.534;2023-04-24T03:36:56;9.90;;;4.67;;
53801;SDS011;39709;53.334;6.534;2023-04-24T03:39:21;8.18;;;4.00;;
53801;SDS011;39709;53.334;6.534;2023-04-24T03:41:47;7.43;;;3.57;;
53801;SDS011;39709;53.334;6.534;2023-04-24T03:44:13;5.13;;;2.30;;
53801;SDS011;39709;53.334;6.534;2023-04-24T03:46:38;4.20;;;1.37;;
53801;SDS011;39709;53.334;6.534;2023-04-24T03:49:04;5.13;;;2.05;;
53801;SDS011;39709;53.334;6.534;2023-04-24T03:51:30;7.20;;;3.63;;
53801;SDS011;39709;53.334;6.534;2023-04-24T03:53:56;8.57;;;3.97;;
53801;SDS011;39709;53.334;6.534;2023-04-24T03:56:22;4.00;;;1.57;;
53801;SDS011;39709;53.334;6.534;2023-04-24T03:58:48;7.30;;;3.80;;
53801;SDS011;39709;53.334;6.534;2023-04-24T04:01:13;7.87;;;4.30;;
53801;SDS011;39709;53.334;6.534;2023-04-24T04:03:41;10.45;;;4.93;;
53801;SDS011;39709;53.334;6.534;2023-04-24T04:06:06;10.90;;;5.30;;
53801;SDS011;39709;53.334;6.534;2023-04-24T04:08:32;9.13;;;5.13;;
53801;SDS011;39709;53.334;6.534;2023-04-24T04:10:58;10.05;;;4.95;;
53801;SDS011;39709;53.334;6.534;2023-04-24T04:13:23;10.20;;;5.17;;
53801;SDS011;39709;53.334;6.534;2023-04-24T04:15:49;11.02;;;6.07;;
53801;SDS011;39709;53.334;6.534;2023-04-24T04:18:15;9.17;;;4.33;;
53801;SDS011;39709;53.334;6.534;2023-04-24T04:20:40;9.70;;;5.10;;
53801;SDS011;39709;53.334;6.534;2023-04-24T04:23:06;11.13;;;5.83;;
53801;SDS011;39709;53.334;6.534;2023-04-24T04:25:32;11.67;;;5.87;;
53801;SDS011;39709;53.334;6.534;2023-04-24T04:27:57;12.27;;;6.57;;
53801;SDS011;39709;53.334;6.534;2023-04-24T04:30:24;12.95;;;6.40;;
53801;SDS011;39709;53.334;6.534;2023-04-24T04:32:51;12.35;;;6.70;;
53801;SDS011;39709;53.334;6.534;2023-04-24T04:35:16;11.63;;;5.67;;
53801;SDS011;39709;53.334;6.534;2023-04-24T04:37:42;11.48;;;5.30;;
53801;SDS011;39709;53.334;6.534;2023-04-24T04:40:08;7.67;;;2.97;;
53801;SDS011;39709;53.334;6.534;2023-04-24T04:42:37;9.40;;;4.03;;
53801;SDS011;39709;53.334;6.534;2023-04-24T04:45:07;7.18;;;2.75;;
53801;SDS011;39709;53.334;6.534;2023-04-24T04:47:36;8.27;;;3.65;;
53801;SDS011;39709;53.334;6.534;2023-04-24T04:50:02;7.70;;;3.43;;
53801;SDS011;39709;53.334;6.534;2023-04-24T04:52:30;8.05;;;3.38;;
53801;SDS011;39709;53.334;6.534;2023-04-24T04:54:56;8.73;;;3.22;;
53801;SDS011;39709;53.334;6.534;2023-04-24T04:57:22;9.57;;;4.13;;
53801;SDS011;39709;53.334;6.534;2023-04-24T04:59:48;9.80;;;4.27;;
53801;SDS011;39709;53.334;6.534;2023-04-24T05:02:13;11.75;;;4.97;;
53801;SDS011;39709;53.334;6.534;2023-04-24T05:04:39;12.40;;;5.20;;
53801;SDS011;39709;53.334;6.534;2023-04-24T05:07:05;10.38;;;4.78;;
53801;SDS011;39709;53.334;6.534;2023-04-24T05:09:31;7.83;;;3.43;;
53801;SDS011;39709;53.334;6.534;2023-04-24T05:11:57;8.07;;;3.72;;
53801;SDS011;39709;53.334;6.534;2023-04-24T05:14:22;6.23;;;1.77;;
53801;SDS011;39709;53.334;6.534;2023-04-24T05:16:48;7.88;;;2.15;;
53801;SDS011;39709;53.334;6.534;2023-04-24T05:19:14;5.97;;;2.00;;
53801;SDS011;39709;53.334;6.534;2023-04-24T05:21:42;12.00;;;4.20;;
53801;SDS011;39709;53.334;6.534;2023-04-24T05:24:08;8.27;;;3.00;;
53801;SDS011;39709;53.334;6.534;2023-04-24T05:26:34;12.57;;;4.43;;
53801;SDS011;39709;53.334;6.534;2023-04-24T05:29:00;12.38;;;4.53;;
53801;SDS011;39709;53.334;6.534;2023-04-24T05:31:28;15.20;;;7.07;;
53801;SDS011;39709;53.334;6.534;2023-04-24T05:33:53;9.90;;;4.15;;
53801;SDS011;39709;53.334;6.534;2023-04-24T05:36:19;9.30;;;3.97;;
53801;SDS011;39709;53.334;6.534;2023-04-24T05:38:45;10.53;;;4.47;;
53801;SDS011;39709;53.334;6.534;2023-04-24T05:41:10;7.95;;;2.95;;
53801;SDS011;39709;53.334;6.534;2023-04-24T05:43:36;10.03;;;4.67;;
53801;SDS011;39709;53.334;6.534;2023-04-24T05:46:02;4.95;;;1.73;;
53801;SDS011;39709;53.334;6.534;2023-04-24T05:48:27;9.37;;;4.77;;
53801;SDS011;39709;53.334;6.534;2023-04-24T05:50:53;9.32;;;4.72;;
53801;SDS011;39709;53.334;6.534;2023-04-24T05:53:19;9.63;;;4.07;;
53801;SDS011;39709;53.334;6.534;2023-04-24T05:55:45;9.07;;;4.43;;
53801;SDS011;39709;53.334;6.534;2023-04-24T05:58:11;9.40;;;4.27;;
53801;SDS011;39709;53.334;6.534;2023-04-24T06:00:37;6.00;;;2.15;;
53801;SDS011;39709;53.334;6.534;2023-04-24T06:03:04;12.77;;;7.25;;
53801;SDS011;39709;53.334;6.534;2023-04-24T06:05:29;4.97;;;1.97;;
53801;SDS011;39709;53.334;6.534;2023-04-24T06:07:55;5.88;;;2.35;;
53801;SDS011;39709;53.334;6.534;2023-04-24T06:10:21;7.70;;;3.97;;
53801;SDS011;39709;53.334;6.534;2023-04-24T06:12:47;10.30;;;5.00;;
53801;SDS011;39709;53.334;6.534;2023-04-24T06:15:12;4.50;;;1.38;;
53801;SDS011;39709;53.334;6.534;2023-04-24T06:17:38;9.90;;;3.17;;
53801;SDS011;39709;53.334;6.534;2023-04-24T06:20:04;8.27;;;3.13;;
53801;SDS011;39709;53.334;6.534;2023-04-24T06:22:31;11.00;;;4.90;;
53801;SDS011;39709;53.334;6.534;2023-04-24T06:24:57;9.60;;;3.33;;
53801;SDS011;39709;53.334;6.534;2023-04-24T06:27:24;7.07;;;3.00;;
53801;SDS011;39709;53.334;6.534;2023-04-24T06:29:50;12.47;;;5.00;;
53801;SDS011;39709;53.334;6.534;2023-04-24T06:32:19;8.88;;;3.65;;
53801;SDS011;39709;53.334;6.534;2023-04-24T06:34:46;12.13;;;4.45;;
53801;SDS011;39709;53.334;6.534;2023-04-24T06:37:12;13.50;;;4.80;;
53801;SDS011;39709;53.334;6.534;2023-04-24T06:39:37;8.63;;;3.33;;
53801;SDS011;39709;53.334;6.534;2023-04-24T06:42:03;7.70;;;2.83;;
53801;SDS011;39709;53.334;6.534;2023-04-24T06:44:29;7.88;;;3.85;;
53801;SDS011;39709;53.334;6.534;2023-04-24T06:46:54;8.60;;;2.27;;
53801;SDS011;39709;53.334;6.534;2023-04-24T06:49:20;5.47;;;1.42;;
53801;SDS011;39709;53.334;6.534;2023-04-24T06:51:46;4.53;;;1.00;;
53801;SDS011;39709;53.334;6.534;2023-04-24T06:54:11;5.73;;;1.83;;
53801;SDS011;39709;53.334;6.534;2023-04-24T06:56:37;9.23;;;2.78;;
53801;SDS011;39709;53.334;6.534;2023-04-24T06:59:03;7.85;;;2.55;;
53801;SDS011;39709;53.334;6.534;2023-04-24T07:01:29;9.53;;;2.40;;
53801;SDS011;39709;53.334;6.534;2023-04-24T07:03:54;7.70;;;2.35;;
53801;SDS011;39709;53.334;6.534;2023-04-24T07:06:20;7.93;;;2.07;;
53801;SDS011;39709;53.334;6.534;2023-04-24T07:08:47;7.20;;;1.60;;
53801;SDS011;39709;53.334;6.534;2023-04-24T07:11:13;7.25;;;1.38;;
53801;SDS011;39709;53.334;6.534;2023-04-24T07:13:39;7.67;;;2.23;;
53801;SDS011;39709;53.334;6.534;2023-04-24T07:16:07;1.87;;;0.50;;
53801;SDS011;39709;53.334;6.534;2023-04-24T07:18:33;5.75;;;1.10;;
53801;SDS011;39709;53.334;6.534;2023-04-24T07:20:59;6.45;;;2.38;;
53801;SDS011;39709;53.334;6.534;2023-04-24T07:23:25;9.18;;;3.90;;
53801;SDS011;39709;53.334;6.534;2023-04-24T07:25:51;8.93;;;3.40;;
53801;SDS011;39709;53.334;6.534;2023-04-24T07:28:17;8.27;;;3.03;;
53801;SDS011;39709;53.334;6.534;2023-04-24T07:30:43;5.17;;;1.47;;
53801;SDS011;39709;53.334;6.534;2023-04-24T07:33:09;11.60;;;2.70;;
53801;SDS011;39709;53.334;6.534;2023-04-24T07:35:38;5.28;;;1.63;;
53801;SDS011;39709;53.334;6.534;2023-04-24T07:38:03;6.50;;;1.70;;
53801;SDS011;39709;53.334;6.534;2023-04-24T07:40:29;5.00;;;1.23;;
53801;SDS011;39709;53.334;6.534;2023-04-24T07:42:55;11.23;;;3.40;;
53801;SDS011;39709;53.334;6.534;2023-04-24T07:45:21;6.30;;;1.93;;
53801;SDS011;39709;53.334;6.534;2023-04-24T07:47:48;10.18;;;3.38;;
53801;SDS011;39709;53.334;6.534;2023-04-24T07:50:13;11.40;;;5.43;;
53801;SDS011;39709;53.334;6.534;2023-04-24T07:52:39;12.07;;;5.88;;
53801;SDS011;39709;53.334;6.534;2023-04-24T07:55:05;12.30;;;4.73;;
53801;SDS011;39709;53.334;6.534;2023-04-24T07:57:31;18.75;;;7.55;;
53801;SDS011;39709;53.334;6.534;2023-04-24T07:59:56;14.18;;;6.53;;
53801;SDS011;39709;53.334;6.534;2023-04-24T08:02:22;17.10;;;8.20;;
53801;SDS011;39709;53.334;6.534;2023-04-24T08:04:52;20.38;;;8.85;;
53801;SDS011;39709;53.334;6.534;2023-04-24T08:07:20;22.45;;;11.73;;
53801;SDS011;39709;53.334;6.534;2023-04-24T08:09:46;23.07;;;10.43;;
53801;SDS011;39709;53.334;6.534;2023-04-24T08:12:12;24.13;;;11.77;;
53801;SDS011;39709;53.334;6.534;2023-04-24T08:14:38;24.77;;;11.13;;
53801;SDS011;39709;53.334;6.534;2023-04-24T08:17:03;25.88;;;11.75;;
53801;SDS011;39709;53.334;6.534;2023-04-24T08:19:29;21.43;;;9.53;;
53801;SDS011;39709;53.334;6.534;2023-04-24T08:21:55;26.95;;;13.30;;
53801;SDS011;39709;53.334;6.534;2023-04-24T08:24:20;23.07;;;10.57;;
53801;SDS011;39709;53.334;6.534;2023-04-24T08:26:47;21.40;;;9.00;;
53801;SDS011;39709;53.334;6.534;2023-04-24T08:29:15;23.27;;;9.52;;
53801;SDS011;39709;53.334;6.534;2023-04-24T08:31:41;20.17;;;10.02;;
53801;SDS011;39709;53.334;6.534;2023-04-24T08:34:07;15.77;;;7.00;;
53801;SDS011;39709;53.334;6.534;2023-04-24T08:36:32;21.27;;;11.05;;
53801;SDS011;39709;53.334;6.534;2023-04-24T08:38:58;16.97;;;7.60;;
53801;SDS011;39709;53.334;6.534;2023-04-24T08:41:24;19.67;;;9.68;;
53801;SDS011;39709;53.334;6.534;2023-04-24T08:43:52;22.38;;;8.68;;
53801;SDS011;39709;53.334;6.534;2023-04-24T08:46:18;21.30;;;9.83;;
53801;SDS011;39709;53.334;6.534;2023-04-24T08:48:45;21.17;;;8.77;;
53801;SDS011;39709;53.334;6.534;2023-04-24T08:51:10;6.90;;;2.67;;
53801;SDS011;39709;53.334;6.534;2023-04-24T08:53:37;19.43;;;8.17;;
53801;SDS011;39709;53.334;6.534;2023-04-24T08:56:03;24.20;;;10.63;;
53801;SDS011;39709;53.334;6.534;2023-04-24T08:58:29;20.10;;;9.88;;
53801;SDS011;39709;53.334;6.534;2023-04-24T09:00:57;21.20;;;8.93;;
53801;SDS011;39709;53.334;6.534;2023-04-24T09:03:23;17.58;;;7.43;;
53801;SDS011;39709;53.334;6.534;2023-04-24T09:05:50;16.43;;;7.73;;
53801;SDS011;39709;53.334;6.534;2023-04-24T09:08:18;15.45;;;6.63;;
53801;SDS011;39709;53.334;6.534;2023-04-24T09:10:44;13.65;;;6.85;;
53801;SDS011;39709;53.334;6.534;2023-04-24T09:13:10;12.05;;;5.18;;
53801;SDS011;39709;53.334;6.534;2023-04-24T09:15:40;16.45;;;8.68;;
53801;SDS011;39709;53.334;6.534;2023-04-24T09:18:06;16.23;;;6.23;;
53801;SDS011;39709;53.334;6.534;2023-04-24T09:20:32;12.85;;;5.57;;
53801;SDS011;39709;53.334;6.534;2023-04-24T09:22:58;15.27;;;6.50;;
53801;SDS011;39709;53.334;6.534;2023-04-24T09:25:33;13.30;;;4.90;;
53801;SDS011;39709;53.334;6.534;2023-04-24T09:28:01;11.07;;;4.57;;
53801;SDS011;39709;53.334;6.534;2023-04-24T09:30:28;9.80;;;5.00;;
53801;SDS011;39709;53.334;6.534;2023-04-24T09:33:13;11.55;;;5.60;;
53801;SDS011;39709;53.334;6.534;2023-04-24T09:35:41;9.32;;;4.10;;
53801;SDS011;39709;53.334;6.534;2023-04-24T09:38:08;12.80;;;4.55;;
53801;SDS011;39709;53.334;6.534;2023-04-24T09:40:34;12.00;;;4.60;;
53801;SDS011;39709;53.334;6.534;2023-04-24T09:43:00;12.70;;;5.05;;
53801;SDS011;39709;53.334;6.534;2023-04-24T09:45:35;12.45;;;3.63;;
53801;SDS011;39709;53.334;6.534;2023-04-24T09:48:01;11.52;;;4.00;;
53801;SDS011;39709;53.334;6.534;2023-04-24T09:50:29;10.15;;;3.35;;
53801;SDS011;39709;53.334;6.534;2023-04-24T09:53:03;11.63;;;3.90;;
53801;SDS011;39709;53.334;6.534;2023-04-24T09:55:30;13.05;;;4.03;;
53801;SDS011;39709;53.334;6.534;2023-04-24T09:58:00;12.20;;;4.18;;
53801;SDS011;39709;53.334;6.534;2023-04-24T10:00:30;12.57;;;3.60;;
53801;SDS011;39709;53.334;6.534;2023-04-24T10:02:57;7.30;;;2.37;;
53801;SDS011;39709;53.334;6.534;2023-04-24T10:05:31;8.90;;;3.22;;
53801;SDS011;39709;53.334;6.534;2023-04-24T10:08:09;9.90;;;3.47;;
53801;SDS011;39709;53.334;6.534;2023-04-24T10:10:38;9.32;;;2.20;;
53801;SDS011;39709;53.334;6.534;2023-04-24T10:13:09;8.38;;;2.58;;
53801;SDS011;39709;53.334;6.534;2023-04-24T10:15:36;9.47;;;2.90;;
53801;SDS011;39709;53.334;6.534;2023-04-24T10:18:04;6.50;;;1.55;;
53801;SDS011;39709;53.334;6.534;2023-04-24T10:20:31;6.72;;;2.17;;
53801;SDS011;39709;53.334;6.534;2023-04-24T10:22:58;10.88;;;2.42;;
53801;SDS011;39709;53.334;6.534;2023-04-24T10:25:29;8.82;;;2.67;;
53801;SDS011;39709;53.334;6.534;2023-04-24T10:27:56;8.00;;;2.60;;
53801;SDS011;39709;53.334;6.534;2023-04-24T10:30:24;11.45;;;2.90;;
53801;SDS011;39709;53.334;6.534;2023-04-24T10:32:51;8.82;;;2.00;;
53801;SDS011;39709;53.334;6.534;2023-04-24T10:35:17;6.38;;;1.92;;
53801;SDS011;39709;53.334;6.534;2023-04-24T10:37:57;9.20;;;2.30;;
53801;SDS011;39709;53.334;6.534;2023-04-24T10:40:30;8.10;;;2.00;;
53801;SDS011;39709;53.334;6.534;2023-04-24T10:42:58;9.45;;;2.00;;
53801;SDS011;39709;53.334;6.534;2023-04-24T10:45:25;6.68;;;1.63;;
53801;SDS011;39709;53.334;6.534;2023-04-24T10:48:07;7.32;;;1.63;;
53801;SDS011;39709;53.334;6.534;2023-04-24T10:50:48;5.17;;;1.37;;
53801;SDS011;39709;53.334;6.534;2023-04-24T10:53:18;6.40;;;1.55;;
53801;SDS011;39709;53.334;6.534;2023-04-24T10:58:24;7.60;;;1.80;;
53801;SDS011;39709;53.334;6.534;2023-04-24T11:01:00;5.65;;;1.55;;
53801;SDS011;39709;53.334;6.534;2023-04-24T11:03:26;6.43;;;1.03;;
53801;SDS011;39709;53.334;6.534;2023-04-24T11:08:25;5.38;;;0.93;;
53801;SDS011;39709;53.334;6.534;2023-04-24T11:10:59;5.07;;;1.50;;
53801;SDS011;39709;53.334;6.534;2023-04-24T11:19:10;10.40;;;1.67;;
53801;SDS011;39709;53.334;6.534;2023-04-24T11:21:57;6.45;;;1.17;;
53801;SDS011;39709;53.334;6.534;2023-04-24T11:27:12;7.27;;;0.90;;
53801;SDS011;39709;53.334;6.534;2023-04-24T11:34:44;12.43;;;1.52;;
53801;SDS011;39709;53.334;6.534;2023-04-24T11:37:15;10.00;;;1.50;;
53801;SDS011;39709;53.334;6.534;2023-04-24T11:39:41;6.47;;;1.13;;
53801;SDS011;39709;53.334;6.534;2023-04-24T11:42:08;7.38;;;1.10;;
53801;SDS011;39709;53.334;6.534;2023-04-24T11:44:34;7.63;;;1.45;;
53801;SDS011;39709;53.334;6.534;2023-04-24T11:47:03;5.83;;;0.90;;
53801;SDS011;39709;53.334;6.534;2023-04-24T11:49:37;6.22;;;0.90;;
53801;SDS011;39709;53.334;6.534;2023-04-24T11:52:03;4.90;;;0.80;;
53801;SDS011;39709;53.334;6.534;2023-04-24T11:54:29;8.88;;;0.90;;
53801;SDS011;39709;53.334;6.534;2023-04-24T11:56:55;7.72;;;1.00;;
53801;SDS011;39709;53.334;6.534;2023-04-24T11:59:21;5.60;;;0.80;;
53801;SDS011;39709;53.334;6.534;2023-04-24T12:01:47;10.02;;;1.05;;
53801;SDS011;39709;53.334;6.534;2023-04-24T12:04:14;9.88;;;1.35;;
53801;SDS011;39709;53.334;6.534;2023-04-24T12:07:01;5.65;;;1.20;;
53801;SDS011;39709;53.334;6.534;2023-04-24T12:09:28;7.87;;;0.90;;
53801;SDS011;39709;53.334;6.534;2023-04-24T12:12:06;4.43;;;0.50;;
53801;SDS011;39709;53.334;6.534;2023-04-24T12:14:31;5.55;;;0.60;;
53801;SDS011;39709;53.334;6.534;2023-04-24T12:16:57;4.87;;;0.53;;
53801;SDS011;39709;53.334;6.534;2023-04-24T12:19:23;7.45;;;1.25;;
53801;SDS011;39709;53.334;6.534;2023-04-24T12:22:01;4.80;;;0.60;;
53801;SDS011;39709;53.334;6.534;2023-04-24T12:24:30;6.10;;;0.83;;
53801;SDS011;39709;53.334;6.534;2023-04-24T12:26:56;7.43;;;1.05;;
53801;SDS011;39709;53.334;6.534;2023-04-24T12:29:23;3.72;;;0.85;;
53801;SDS011;39709;53.334;6.534;2023-04-24T12:31:49;4.90;;;0.77;;
53801;SDS011;39709;53.334;6.534;2023-04-24T12:36:45;3.50;;;0.63;;
53801;SDS011;39709;53.334;6.534;2023-04-24T12:39:15;3.97;;;0.95;;
53801;SDS011;39709;53.334;6.534;2023-04-24T12:41:50;7.57;;;0.90;;
53801;SDS011;39709;53.334;6.534;2023-04-24T12:44:29;5.60;;;0.73;;
53801;SDS011;39709;53.334;6.534;2023-04-24T12:46:59;6.60;;;1.00;;
53801;SDS011;39709;53.334;6.534;2023-04-24T12:49:26;6.27;;;0.63;;
53801;SDS011;39709;53.334;6.534;2023-04-24T12:51:52;7.35;;;1.13;;
53801;SDS011;39709;53.334;6.534;2023-04-24T12:54:18;3.22;;;0.50;;
53801;SDS011;39709;53.334;6.534;2023-04-24T12:56:44;7.10;;;0.93;;
53801;SDS011;39709;53.334;6.534;2023-04-24T12:59:10;4.67;;;0.60;;
53801;SDS011;39709;53.334;6.534;2023-04-24T13:01:36;4.05;;;0.63;;
53801;SDS011;39709;53.334;6.534;2023-04-24T13:04:01;2.03;;;0.40;;
53801;SDS011;39709;53.334;6.534;2023-04-24T13:06:27;6.15;;;0.70;;
53801;SDS011;39709;53.334;6.534;2023-04-24T13:08:53;4.70;;;0.50;;
53801;SDS011;39709;53.334;6.534;2023-04-24T13:11:20;6.65;;;0.60;;
53801;SDS011;39709;53.334;6.534;2023-04-24T13:13:47;3.47;;;0.40;;
53801;SDS011;39709;53.334;6.534;2023-04-24T13:16:12;4.33;;;0.50;;
53801;SDS011;39709;53.334;6.534;2023-04-24T13:18:38;2.72;;;0.50;;
53801;SDS011;39709;53.334;6.534;2023-04-24T13:21:04;6.50;;;0.97;;
53801;SDS011;39709;53.334;6.534;2023-04-24T13:23:30;7.00;;;0.47;;
53801;SDS011;39709;53.334;6.534;2023-04-24T13:25:55;4.63;;;0.50;;
53801;SDS011;39709;53.334;6.534;2023-04-24T13:28:24;2.95;;;0.50;;
53801;SDS011;39709;53.334;6.534;2023-04-24T13:30:50;4.60;;;0.73;;
53801;SDS011;39709;53.334;6.534;2023-04-24T13:33:16;2.70;;;0.50;;
53801;SDS011;39709;53.334;6.534;2023-04-24T13:35:42;3.17;;;0.40;;
53801;SDS011;39709;53.334;6.534;2023-04-24T13:38:07;7.47;;;0.55;;
53801;SDS011;39709;53.334;6.534;2023-04-24T13:40:33;3.20;;;0.53;;
53801;SDS011;39709;53.334;6.534;2023-04-24T13:42:59;2.50;;;0.50;;
53801;SDS011;39709;53.334;6.534;2023-04-24T13:45:25;3.10;;;0.60;;
53801;SDS011;39709;53.334;6.534;2023-04-24T13:47:52;2.08;;;0.60;;
53801;SDS011;39709;53.334;6.534;2023-04-24T13:50:19;3.60;;;0.60;;
53801;SDS011;39709;53.334;6.534;2023-04-24T13:52:45;2.58;;;0.63;;
53801;SDS011;39709;53.334;6.534;2023-04-24T13:55:11;4.43;;;0.60;;
53801;SDS011;39709;53.334;6.534;2023-04-24T13:57:36;3.10;;;0.70;;
53801;SDS011;39709;53.334;6.534;2023-04-24T14:00:02;6.50;;;0.73;;
53801;SDS011;39709;53.334;6.534;2023-04-24T14:02:29;3.28;;;0.70;;
53801;SDS011;39709;53.334;6.534;2023-04-24T14:04:55;2.03;;;0.47;;
53801;SDS011;39709;53.334;6.534;2023-04-24T14:07:21;4.13;;;1.05;;
53801;SDS011;39709;53.334;6.534;2023-04-24T14:09:46;5.17;;;0.80;;
53801;SDS011;39709;53.334;6.534;2023-04-24T14:12:12;1.83;;;0.40;;
53801;SDS011;39709;53.334;6.534;2023-04-24T14:14:39;3.95;;;0.50;;
53801;SDS011;39709;53.334;6.534;2023-04-24T14:17:05;4.80;;;1.03;;
53801;SDS011;39709;53.334;6.534;2023-04-24T14:19:30;6.90;;;1.10;;
53801;SDS011;39709;53.334;6.534;2023-04-24T14:21:56;6.85;;;1.35;;
53801;SDS011;39709;53.334;6.534;2023-04-24T14:24:23;6.85;;;1.13;;
53801;SDS011;39709;53.334;6.534;2023-04-24T14:26:49;6.30;;;1.07;;
53801;SDS011;39709;53.334;6.534;2023-04-24T14:29:14;3.50;;;0.50;;
53801;SDS011;39709;53.334;6.534;2023-04-24T14:31:42;4.35;;;0.90;;
53801;SDS011;39709;53.334;6.534;2023-04-24T14:34:08;3.33;;;0.83;;
53801;SDS011;39709;53.334;6.534;2023-04-24T14:36:34;3.53;;;0.60;;
53801;SDS011;39709;53.334;6.534;2023-04-24T14:39:00;3.00;;;0.77;;
53801;SDS011;39709;53.334;6.534;2023-04-24T14:41:28;3.10;;;0.70;;
53801;SDS011;39709;53.334;6.534;2023-04-24T14:43:54;7.63;;;1.33;;
53801;SDS011;39709;53.334;6.534;2023-04-24T14:46:19;5.80;;;0.95;;
53801;SDS011;39709;53.334;6.534;2023-04-24T14:48:45;5.03;;;1.10;;
53801;SDS011;39709;53.334;6.534;2023-04-24T14:51:11;4.70;;;0.77;;
53801;SDS011;39709;53.334;6.534;2023-04-24T14:53:37;3.37;;;0.43;;
53801;SDS011;39709;53.334;6.534;2023-04-24T14:56:02;4.75;;;0.80;;
53801;SDS011;39709;53.334;6.534;2023-04-24T14:58:28;2.80;;;0.60;;
53801;SDS011;39709;53.334;6.534;2023-04-24T15:00:54;3.28;;;0.77;;